Time;durP1;ratioP1;P1;durP2;ratioP2;P2;SDS_P1;SDS_P2;PMS_P1;PMS_P2;Temp;Humidity;BMP_temperature;BMP_pressure;BME280_temperature;BME280_humidity;BME280_pressure;Samples;Min_cycle;Max_cycle;Signal;HPM_P1;HPM_P2
2023/03/22 00:01:40;;;;;;;9.13;4.70;;;;;;;7.41;100.00;100973.81;4939121;28;20023;-92
2023/03/22 00:04:05;;;;;;;10.80;5.13;;;;;;;7.37;100.00;100967.81;4953299;28;20030;-93
2023/03/22 00:06:36;;;;;;;11.00;4.60;;;;;;;7.48;100.00;100989.22;4944103;29;20035;-93
2023/03/22 00:09:01;;;;;;;10.68;4.32;;;;;;;7.26;100.00;100963.63;4938943;28;20032;-92
2023/03/22 00:11:29;;;;;;;10.23;4.43;;;;;;;7.38;100.00;100986.72;4939198;28;20030;-92
2023/03/22 00:13:57;;;;;;;10.82;4.63;;;;;;;7.20;100.00;100963.69;4954596;28;20500;-92
2023/03/22 00:17:17;;;;;;;9.95;4.40;;;;;;;7.27;100.00;100978.22;4939325;28;20038;-93
2023/03/22 00:19:48;;;;;;;7.95;4.03;;;;;;;7.22;100.00;100985.16;4952095;28;20043;-92
2023/03/22 00:22:15;;;;;;;9.18;4.47;;;;;;;7.04;100.00;100957.78;4954412;28;20200;-92
2023/03/22 00:24:40;;;;;;;9.57;4.10;;;;;;;6.99;100.00;100947.50;4939420;28;20464;-93
2023/03/22 00:27:11;;;;;;;10.88;3.85;;;;;;;6.99;100.00;100951.81;4939269;29;20504;-92
2023/03/22 00:29:40;;;;;;;7.47;4.25;;;;;;;6.93;100.00;100938.97;4940114;28;20127;-92
2023/03/22 00:32:06;;;;;;;10.13;4.22;;;;;;;7.04;100.00;100966.38;4953428;28;20030;-92
2023/03/22 00:34:32;;;;;;;9.07;4.50;;;;;;;6.87;100.00;100942.44;4938775;28;20071;-92
2023/03/22 00:37:00;;;;;;;8.52;4.22;;;;;;;6.89;100.00;100935.53;4952952;28;20518;-92
2023/03/22 00:39:30;;;;;;;8.38;4.50;;;;;;;6.83;100.00;100932.16;4940815;29;20051;-92
2023/03/22 00:42:06;;;;;;;9.00;4.68;;;;;;;6.79;100.00;100928.75;4941024;29;20027;-92
2023/03/22 00:44:34;;;;;;;8.45;3.78;;;;;;;6.83;100.00;100938.16;4939344;28;20046;-92
2023/03/22 00:47:14;;;;;;;7.45;4.22;;;;;;;6.82;100.00;100920.16;4957348;28;20089;-92
2023/03/22 00:49:45;;;;;;;11.77;4.80;;;;;;;6.71;100.00;100908.19;4945744;29;20086;-92
2023/03/22 00:52:13;;;;;;;11.10;4.35;;;;;;;6.68;100.00;100904.81;4940408;29;20023;-92
2023/03/22 00:54:39;;;;;;;11.90;4.53;;;;;;;6.68;100.00;100897.94;4943027;28;20038;-92
2023/03/22 00:57:06;;;;;;;12.40;4.90;;;;;;;6.76;100.00;100910.72;4940911;28;20043;-92
2023/03/22 00:59:38;;;;;;;11.55;5.70;;;;;;;6.84;100.00;100932.16;4939288;28;20514;-92
2023/03/22 01:02:07;;;;;;;14.70;5.28;;;;;;;6.78;100.00;100921.03;4944174;28;20109;-92
2023/03/22 01:04:35;;;;;;;9.95;4.75;;;;;;;6.75;100.00;100911.63;4939349;28;20019;-92
2023/03/22 01:07:04;;;;;;;10.50;5.10;;;;;;;6.69;100.00;100897.03;4955688;28;20440;-92
2023/03/22 01:09:33;;;;;;;12.25;5.38;;;;;;;6.86;100.00;100914.13;4936303;28;20024;-92
2023/03/22 01:12:02;;;;;;;8.85;4.93;;;;;;;6.74;100.00;100897.91;4938321;28;20035;-93
2023/03/22 01:14:30;;;;;;;13.43;5.38;;;;;;;6.69;100.00;100881.59;4955540;28;20027;-92
2023/03/22 01:16:56;;;;;;;10.98;5.13;;;;;;;6.75;100.00;100891.84;4954929;28;20038;-92
2023/03/22 01:19:26;;;;;;;10.77;4.88;;;;;;;6.79;100.00;100890.13;4938319;28;20040;-91
2023/03/22 01:21:52;;;;;;;11.82;5.43;;;;;;;6.68;100.00;100879.91;4941144;29;20019;-93
2023/03/22 01:24:21;;;;;;;10.73;5.50;;;;;;;6.76;100.00;100869.53;4940504;28;20093;-92
2023/03/22 01:26:47;;;;;;;13.65;5.55;;;;;;;6.74;100.00;100871.28;4955595;28;20046;-92
2023/03/22 01:29:12;;;;;;;13.38;5.82;;;;;;;6.81;100.00;100869.50;4953427;28;20023;-91
2023/03/22 01:31:40;;;;;;;11.90;6.10;;;;;;;6.88;100.00;100871.16;4935661;28;20027;-93
2023/03/22 01:34:12;;;;;;;14.57;5.82;;;;;;;6.89;100.00;100860.81;4937028;28;20051;-92
2023/03/22 01:36:40;;;;;;;14.20;6.15;;;;;;;6.84;100.00;100831.69;4953866;28;20031;-92
2023/03/22 01:39:06;;;;;;;14.20;6.82;;;;;;;6.97;100.00;100842.72;4938918;28;20033;-92
2023/03/22 01:41:34;;;;;;;15.30;6.30;;;;;;;7.03;100.00;100827.19;4953430;28;20035;-92
2023/03/22 01:44:13;;;;;;;14.50;6.90;;;;;;;7.16;100.00;100823.66;4937515;28;20038;-92
2023/03/22 01:46:40;;;;;;;18.73;7.57;;;;;;;7.19;100.00;100804.72;4952087;28;21090;-91
2023/03/22 01:49:12;;;;;;;16.92;7.63;;;;;;;7.31;100.00;100804.56;4937126;29;20039;-92
2023/03/22 01:51:44;;;;;;;17.30;7.57;;;;;;;7.45;100.00;100806.13;4953342;28;20478;-92
2023/03/22 01:54:16;;;;;;;16.42;7.85;;;;;;;7.47;100.00;100788.94;4941538;29;20020;-92
2023/03/22 01:56:45;;;;;;;15.13;7.97;;;;;;;7.71;100.00;100807.56;4957246;28;20054;-92
2023/03/22 01:59:15;;;;;;;16.27;8.35;;;;;;;7.69;100.00;100791.25;4959290;28;20035;-93
2023/03/22 02:01:45;;;;;;;21.65;8.15;;;;;;;7.74;100.00;100782.56;4943722;28;20554;-92
2023/03/22 02:04:22;;;;;;;16.13;8.23;;;;;;;7.88;100.00;100790.13;4957162;28;20027;-93
2023/03/22 02:06:52;;;;;;;19.35;8.73;;;;;;;7.84;100.00;100773.84;4945491;29;20031;-92
2023/03/22 02:09:21;;;;;;;19.67;9.52;;;;;;;7.88;100.00;100765.19;4960953;28;20121;-93
2023/03/22 02:12:05;;;;;;;16.98;9.18;;;;;;;8.02;100.00;100771.88;4948748;28;20039;-92
2023/03/22 02:14:45;;;;;;;20.48;9.07;;;;;;;8.11;100.00;100779.50;4944866;29;20048;-92
2023/03/22 02:17:33;;;;;;;18.20;8.68;;;;;;;8.21;100.00;100781.03;4959215;28;20030;-92
2023/03/22 02:20:37;;;;;;;20.98;10.02;;;;;;;8.09;100.00;100756.28;4942066;28;20076;-92
2023/03/22 02:23:29;;;;;;;18.58;9.65;;;;;;;8.30;100.00;100780.91;4958843;28;20034;-92
2023/03/22 02:26:03;;;;;;;21.42;10.45;;;;;;;8.34;100.00;100777.44;4947063;28;20043;-92
2023/03/22 02:28:43;;;;;;;22.90;10.35;;;;;;;8.38;100.00;100776.53;4946285;28;20038;-92
2023/03/22 02:31:40;;;;;;;18.58;9.98;;;;;;;8.38;100.00;100771.34;4943589;28;20059;-93
2023/03/22 02:35:06;;;;;;;19.45;9.35;;;;;;;8.42;100.00;100772.16;4944101;29;20051;-92
2023/03/22 02:38:14;;;;;;;22.65;10.10;;;;;;;8.43;100.00;100766.09;4870590;29;20044;-92
2023/03/22 02:41:13;;;;;;;20.65;10.85;;;;;;;8.33;100.00;100748.16;4900324;29;20461;-93
2023/03/22 02:44:05;;;;;;;18.20;9.65;;;;;;;8.46;100.00;100774.66;4898115;29;20036;-93
2023/03/22 02:46:45;;;;;;;20.02;10.30;;;;;;;8.30;100.00;100742.19;4898883;28;20035;-92
2023/03/22 02:49:28;;;;;;;21.38;10.73;;;;;;;8.50;100.00;100768.56;4959411;28;20050;-92
2023/03/22 02:52:16;;;;;;;23.58;10.88;;;;;;;8.52;100.00;100766.81;4946268;29;20106;-92
2023/03/22 02:55:10;;;;;;;21.95;10.07;;;;;;;8.41;100.00;100737.72;4944737;28;20041;-92
2023/03/22 02:57:55;;;;;;;17.98;9.85;;;;;;;8.45;100.00;100720.44;4943904;28;20058;-92
2023/03/22 03:00:24;;;;;;;19.42;9.88;;;;;;;8.65;100.00;100750.22;4942038;28;20034;-92
2023/03/22 03:02:56;;;;;;;18.27;10.20;;;;;;;8.61;100.00;100739.97;4958948;28;20035;-93
2023/03/22 03:05:24;;;;;;;19.10;9.38;;;;;;;8.72;100.00;100743.22;4944293;28;20518;-93
2023/03/22 03:07:57;;;;;;;16.85;8.90;;;;;;;8.73;100.00;100748.34;4941737;28;20031;-93
2023/03/22 03:10:24;;;;;;;17.35;9.25;;;;;;;8.61;100.00;100721.88;4939301;28;20143;-92
2023/03/22 03:12:58;;;;;;;20.20;9.40;;;;;;;8.65;100.00;100726.97;4954990;28;20030;-92
2023/03/22 03:15:24;;;;;;;18.17;9.00;;;;;;;8.67;100.00;100719.19;4956397;28;20035;-92
2023/03/22 03:18:08;;;;;;;17.27;8.80;;;;;;;8.79;100.00;100741.38;4939443;28;20027;-92
2023/03/22 03:21:02;;;;;;;13.05;7.97;;;;;;;8.78;100.00;100740.53;4939977;28;20050;-92
2023/03/22 03:23:44;;;;;;;13.85;7.70;;;;;;;8.73;100.00;100724.25;4942435;28;20042;-93
2023/03/22 03:26:44;;;;;;;17.35;7.85;;;;;;;8.76;100.00;100731.94;4940500;28;20027;-92
2023/03/22 03:29:28;;;;;;;15.23;7.38;;;;;;;8.63;100.00;100699.44;4955387;28;20556;-92
2023/03/22 03:32:00;;;;;;;;;;;;;;;8.80;100.00;100730.16;4940816;28;20574;-92
2023/03/22 03:34:41;;;;;;;13.27;6.45;;;;;;;8.79;100.00;100731.03;4954791;28;19922;-91
2023/03/22 03:37:20;;;;;;;15.63;7.10;;;;;;;8.80;100.00;100730.16;4956787;28;20034;-92
2023/03/22 03:40:10;;;;;;;13.50;6.78;;;;;;;8.64;100.00;100702.00;4942243;28;20447;-93
2023/03/22 03:42:48;;;;;;;16.02;6.35;;;;;;;8.67;100.00;100708.84;4939493;28;20042;-92
2023/03/22 03:45:18;;;;;;;12.95;6.45;;;;;;;8.66;100.00;100700.25;4943240;29;20083;-92
2023/03/22 03:47:45;;;;;;;12.73;6.45;;;;;;;8.75;100.00;100713.88;4944009;28;20031;-93
2023/03/22 03:50:15;;;;;;;12.77;6.22;;;;;;;8.77;100.00;100712.13;4943403;28;20031;-93
2023/03/22 03:52:42;;;;;;;15.65;6.70;;;;;;;8.70;100.00;100701.91;4945159;28;20027;-93
2023/03/22 03:55:15;;;;;;;12.25;5.85;;;;;;;8.82;100.00;100733.56;4938832;28;21003;-93
2023/03/22 03:57:40;;;;;;;14.02;6.05;;;;;;;8.69;100.00;100722.59;4939655;28;20035;-93
2023/03/22 04:00:09;;;;;;;13.18;5.97;;;;;;;8.64;100.00;100717.50;4939651;28;20101;-92
2023/03/22 04:02:38;;;;;;;15.60;6.15;;;;;;;8.64;100.00;100724.41;4954081;28;20066;-91
2023/03/22 04:05:07;;;;;;;14.70;6.00;;;;;;;8.71;100.00;100731.19;4954998;28;20065;-92
2023/03/22 04:07:35;;;;;;;12.50;5.68;;;;;;;8.60;100.00;100717.56;4938142;28;20027;-92
2023/03/22 04:10:04;;;;;;;13.82;5.60;;;;;;;8.48;100.00;100716.06;4940211;28;20040;-92
2023/03/22 04:12:33;;;;;;;12.45;5.82;;;;;;;8.51;100.00;100718.63;4939409;29;20063;-91
2023/03/22 04:14:58;;;;;;;10.70;5.50;;;;;;;8.53;100.00;100732.34;4939603;28;20838;-92
2023/03/22 04:17:24;;;;;;;11.23;5.40;;;;;;;8.50;100.00;100734.13;4955169;28;20156;-92
2023/03/22 04:19:52;;;;;;;10.88;5.38;;;;;;;8.36;100.00;100708.53;4941136;28;20027;-92
2023/03/22 04:22:26;;;;;;;10.65;5.00;;;;;;;8.32;100.00;100702.56;4938573;28;20024;-93
2023/03/22 04:24:52;;;;;;;10.63;5.30;;;;;;;8.34;100.00;100715.44;4939631;28;20042;-93
2023/03/22 04:27:19;;;;;;;11.50;4.97;;;;;;;8.35;100.00;100704.25;4954256;28;20031;-93
2023/03/22 04:29:49;;;;;;;10.85;5.30;;;;;;;8.27;100.00;100694.00;4940280;28;20035;-92
2023/03/22 04:32:23;;;;;;;12.20;4.93;;;;;;;8.28;100.00;100698.28;4938591;28;20023;-92
2023/03/22 04:34:52;;;;;;;9.80;4.93;;;;;;;8.43;100.00;100720.47;4938980;29;20032;-92
2023/03/22 04:37:23;;;;;;;12.10;5.35;;;;;;;8.43;100.00;100719.63;4940461;28;20149;-94
2023/03/22 04:39:49;;;;;;;13.93;5.10;;;;;;;8.30;100.00;100693.13;4939943;28;20031;-92
2023/03/22 04:42:14;;;;;;;10.27;4.85;;;;;;;8.32;100.00;100705.13;4953735;28;20499;-92
2023/03/22 04:44:40;;;;;;;9.45;4.50;;;;;;;8.18;100.00;100685.56;4954362;28;20015;-92
2023/03/22 04:47:06;;;;;;;12.02;5.13;;;;;;;8.12;100.00;100680.53;4939724;28;20031;-92
2023/03/22 04:49:34;;;;;;;11.23;4.95;;;;;;;8.22;100.00;100700.13;4939599;28;20111;-92
2023/03/22 04:51:59;;;;;;;11.65;4.93;;;;;;;8.13;100.00;100689.94;4937939;28;20031;-93
2023/03/22 04:54:27;;;;;;;10.57;4.95;;;;;;;8.06;100.00;100683.16;4940937;29;20670;-92
2023/03/22 04:56:55;;;;;;;11.10;5.15;;;;;;;8.17;100.00;100699.38;4938940;28;20038;-93
2023/03/22 04:59:21;;;;;;;9.65;4.93;;;;;;;8.15;100.00;100699.38;4940668;29;20403;-92
2023/03/22 05:01:47;;;;;;;11.43;4.72;;;;;;;8.11;100.00;100682.25;4940337;29;20484;-92
2023/03/22 05:04:16;;;;;;;9.05;4.55;;;;;;;8.10;100.00;100672.78;4936560;28;20436;-91
2023/03/22 05:06:44;;;;;;;11.80;4.65;;;;;;;8.19;100.00;100687.25;4939820;28;20031;-92
2023/03/22 05:09:10;;;;;;;9.95;4.70;;;;;;;8.23;100.00;100676.03;4952856;28;20045;-92
2023/03/22 05:11:39;;;;;;;10.80;4.65;;;;;;;8.29;100.00;100688.81;4937609;28;20746;-93
2023/03/22 05:14:05;;;;;;;11.52;4.90;;;;;;;8.37;100.00;100694.75;4937416;28;20602;-92
2023/03/22 05:16:31;;;;;;;11.90;4.70;;;;;;;8.28;100.00;100664.72;4954263;28;20333;-92
2023/03/22 05:19:01;;;;;;;12.43;4.78;;;;;;;8.29;100.00;100665.59;4953483;28;20170;-92
2023/03/22 05:21:28;;;;;;;12.65;4.53;;;;;;;8.42;100.00;100676.59;4937991;28;20027;-93
2023/03/22 05:23:59;;;;;;;11.13;4.57;;;;;;;8.39;100.00;100671.50;4944813;29;20047;-92
2023/03/22 05:26:25;;;;;;;10.20;4.25;;;;;;;8.42;100.00;100667.09;4939058;28;20177;-92
2023/03/22 05:28:57;;;;;;;9.32;4.10;;;;;;;8.38;100.00;100660.31;4937368;28;20027;-92
2023/03/22 05:31:27;;;;;;;8.32;4.07;;;;;;;8.37;100.00;100665.47;4952669;28;20024;-93
2023/03/22 05:33:55;;;;;;;12.20;4.20;;;;;;;8.46;100.00;100683.41;4939284;29;20023;-93
2023/03/22 05:36:23;;;;;;;9.52;4.50;;;;;;;8.35;100.00;100667.22;4951953;28;20039;-92
2023/03/22 05:38:56;;;;;;;12.95;4.20;;;;;;;8.35;100.00;100665.50;4952777;28;20457;-93
2023/03/22 05:41:22;;;;;;;11.07;3.97;;;;;;;8.32;100.00;100670.75;4938627;28;20031;-92
2023/03/22 05:43:47;;;;;;;8.95;3.80;;;;;;;8.37;100.00;100662.91;4938574;28;20032;-93
2023/03/22 05:46:16;;;;;;;8.23;3.70;;;;;;;8.44;100.00;100669.66;4936430;28;20046;-92
2023/03/22 05:48:41;;;;;;;9.65;3.92;;;;;;;8.52;100.00;100680.72;4951311;28;20063;-92
2023/03/22 05:51:16;;;;;;;11.23;4.10;;;;;;;8.46;100.00;100670.50;4951422;28;20123;-92
2023/03/22 05:53:52;;;;;;;;;;;;;;;;;;;;;
2023/03/22 05:56:32;;;;;;;10.18;4.03;;;;;;;8.32;100.00;100660.41;4939522;28;20027;-92
2023/03/22 05:58:57;;;;;;;10.48;3.80;;;;;;;8.47;100.00;100685.09;4939899;28;20125;-92
2023/03/22 06:01:24;;;;;;;9.13;3.67;;;;;;;8.40;100.00;100673.16;4943345;29;20102;-95
2023/03/22 06:03:49;;;;;;;10.65;3.88;;;;;;;8.32;100.00;100665.56;4940852;29;20038;-92
2023/03/22 06:06:15;;;;;;;10.40;4.05;;;;;;;8.44;100.00;100693.75;4955681;28;20031;-93
2023/03/22 06:08:44;;;;;;;9.52;3.88;;;;;;;8.48;100.00;100692.81;4954588;28;20039;-93
2023/03/22 06:11:17;;;;;;;9.13;3.47;;;;;;;8.48;100.00;100673.88;4938906;29;20183;-93
2023/03/22 06:13:42;;;;;;;14.63;4.25;;;;;;;8.53;100.00;100670.34;4935077;28;20031;-92
2023/03/22 06:16:09;;;;;;;11.23;3.75;;;;;;;8.71;100.00;100685.53;4951875;28;20054;-92
2023/03/22 06:18:34;;;;;;;11.13;3.55;;;;;;;8.67;100.00;100670.94;4941881;28;20027;-92
2023/03/22 06:21:09;;;;;;;11.52;3.88;;;;;;;8.70;100.00;100659.69;4938637;28;20411;-92
2023/03/22 06:23:37;;;;;;;10.05;3.47;;;;;;;8.71;100.00;100659.69;4938753;29;20031;-93
2023/03/22 06:26:03;;;;;;;8.55;3.25;;;;;;;8.82;100.00;100666.34;4937180;29;20403;-91
2023/03/22 06:28:31;;;;;;;9.27;3.50;;;;;;;8.89;100.00;100662.78;4937968;28;20035;-92
2023/03/22 06:31:06;;;;;;;10.60;3.53;;;;;;;9.01;100.00;100660.78;4952856;28;20122;-94
2023/03/22 06:33:37;;;;;;;10.27;3.30;;;;;;;9.24;100.00;100678.44;4956345;28;20034;-93
2023/03/22 06:36:06;;;;;;;9.10;3.38;;;;;;;9.23;100.00;100658.63;4939806;29;20109;-92
2023/03/22 06:38:34;;;;;;;9.75;3.67;;;;;;;9.34;100.00;100654.09;4937910;28;20422;-94
2023/03/22 06:41:09;;;;;;;9.70;3.30;;;;;;;9.65;100.00;100685.28;4953058;28;20035;-93
2023/03/22 06:43:57;;;;;;;8.63;3.60;;;;;;;9.94;100.00;100678.59;4952056;28;20408;-92
2023/03/22 06:46:26;;;;;;;10.18;3.38;;;;;;;9.81;100.00;100653.00;4939929;28;20031;-92
2023/03/22 06:48:54;;;;;;;9.85;3.67;;;;;;;9.86;100.00;100671.00;4940540;28;20267;-93
2023/03/22 06:51:20;;;;;;;9.63;3.60;;;;;;;9.88;100.00;100677.88;4957200;28;20027;-91
2023/03/22 06:53:45;;;;;;;11.55;3.88;;;;;;;9.85;100.00;100666.72;4941736;28;20054;-92
2023/03/22 06:56:13;;;;;;;8.02;3.63;;;;;;;9.81;100.00;100662.50;4942154;28;20063;-91
2023/03/22 06:58:39;;;;;;;10.52;3.83;;;;;;;9.93;100.00;100675.16;4941822;28;20035;-92
2023/03/22 07:01:05;;;;;;;11.50;3.88;;;;;;;10.07;100.00;100693.81;4942326;28;20055;-89
2023/03/22 07:03:30;;;;;;;9.93;4.07;;;;;;;10.07;100.00;100670.50;4941034;28;20887;-90
2023/03/22 07:06:03;;;;;;;6.80;3.30;;;;;;;10.27;100.00;100677.81;4942829;29;20031;-90
2023/03/22 07:08:28;;;;;;;8.18;3.53;;;;;;;10.58;100.00;100670.09;4945782;28;20031;-92
2023/03/22 07:10:54;;;;;;;12.23;4.03;;;;;;;10.94;99.81;100676.03;4944688;28;20389;-90
2023/03/22 07:13:19;;;;;;;11.30;4.20;;;;;;;11.08;99.79;100659.19;4941352;28;20032;-91
2023/03/22 07:15:44;;;;;;;10.27;3.92;;;;;;;11.24;98.85;100664.78;4950396;28;20027;-91
2023/03/22 07:18:10;;;;;;;8.90;3.53;;;;;;;11.20;96.13;100657.13;4940551;28;20027;-91
2023/03/22 07:20:37;;;;;;;12.07;3.80;;;;;;;11.08;96.98;100659.19;4953404;28;20098;-91
2023/03/22 07:23:03;;;;;;;9.85;3.70;;;;;;;11.03;97.06;100665.41;4949120;28;20042;-91
2023/03/22 07:25:29;;;;;;;12.80;4.30;;;;;;;10.90;96.69;100645.91;4942295;28;20046;-90
2023/03/22 07:27:55;;;;;;;8.65;4.18;;;;;;;10.79;97.38;100651.38;4942944;28;20039;-91
2023/03/22 07:30:20;;;;;;;10.43;3.90;;;;;;;10.75;97.37;100662.72;4944270;28;20028;-92
2023/03/22 07:32:46;;;;;;;15.30;4.30;;;;;;;10.85;96.98;100676.28;4957553;28;20033;-91
2023/03/22 07:35:11;;;;;;;9.02;4.00;;;;;;;10.83;96.56;100671.16;4943246;29;21087;-90
2023/03/22 07:37:37;;;;;;;7.82;4.10;;;;;;;10.91;95.51;100670.94;4960866;28;20023;-91
2023/03/22 07:40:06;;;;;;;12.30;4.43;;;;;;;10.93;96.42;100669.97;4943163;29;20031;-90
2023/03/22 07:42:33;;;;;;;14.57;4.07;;;;;;;11.04;94.14;100670.56;4939737;28;20042;-91
2023/03/22 07:44:59;;;;;;;10.30;4.20;;;;;;;11.18;95.15;100677.09;4955586;28;20026;-91
2023/03/22 07:47:25;;;;;;;9.63;4.10;;;;;;;11.21;94.97;100675.25;4942368;28;20031;-91
2023/03/22 07:49:51;;;;;;;12.32;4.43;;;;;;;11.23;93.27;100667.41;4958106;28;20038;-91
2023/03/22 07:52:16;;;;;;;12.00;4.28;;;;;;;11.38;94.86;100678.22;4956550;28;20028;-91
2023/03/22 07:54:42;;;;;;;10.98;4.60;;;;;;;11.48;94.29;100670.97;4940885;28;20083;-90
2023/03/22 07:57:43;;;;;;;14.68;4.68;;;;;;;11.76;93.13;100692.66;4941679;29;20040;-91
2023/03/22 08:00:12;;;;;;;10.23;4.25;;;;;;;11.90;90.26;100674.03;4941664;28;20466;-92
2023/03/22 08:02:44;;;;;;;9.63;3.97;;;;;;;12.03;88.45;100683.13;4956370;28;20298;-93
2023/03/22 08:05:09;;;;;;;11.70;3.90;;;;;;;11.87;87.80;100669.78;4938228;28;20019;-92
2023/03/22 08:07:37;;;;;;;11.63;4.43;;;;;;;11.94;88.94;100678.22;4942051;28;20447;-93
2023/03/22 08:10:07;;;;;;;6.88;3.72;;;;;;;12.01;89.01;100673.72;4952461;28;20121;-92
2023/03/22 08:12:33;;;;;;;10.55;4.05;;;;;;;12.10;88.30;100673.38;4956050;28;20020;-93
2023/03/22 08:14:59;;;;;;;12.00;3.80;;;;;;;12.13;86.17;100673.31;4940818;28;20399;-91
2023/03/22 08:17:24;;;;;;;11.07;3.70;;;;;;;12.15;86.22;100695.72;4939499;28;20573;-90
2023/03/22 08:19:50;;;;;;;8.38;3.10;;;;;;;11.99;85.64;100672.91;4954908;28;20035;-90
2023/03/22 08:22:16;;;;;;;12.60;3.83;;;;;;;12.21;85.91;100686.91;4941200;29;20035;-90
2023/03/22 08:24:42;;;;;;;7.10;3.20;;;;;;;12.33;84.83;100681.28;4955353;28;20024;-90
2023/03/22 08:27:07;;;;;;;10.88;2.88;;;;;;;12.53;84.17;100691.00;4940971;29;20113;-89
2023/03/22 08:29:32;;;;;;;10.35;2.95;;;;;;;12.59;82.64;100689.03;4940213;29;20396;-91
2023/03/22 08:32:01;;;;;;;7.15;2.60;;;;;;;12.69;82.71;100671.38;4944142;28;20038;-91
2023/03/22 08:34:27;;;;;;;7.68;2.53;;;;;;;12.82;79.71;100670.03;4940415;29;20507;-91
2023/03/22 08:36:53;;;;;;;10.77;2.50;;;;;;;12.92;81.99;100683.56;4940709;29;20031;-91
2023/03/22 08:39:18;;;;;;;7.53;2.35;;;;;;;13.00;79.17;100664.16;4955821;28;20039;-90
2023/03/22 08:41:49;;;;;;;7.65;2.70;;;;;;;13.19;79.23;100685.19;4940086;28;20448;-91
2023/03/22 08:44:17;;;;;;;9.57;2.15;;;;;;;13.19;78.20;100660.91;4939974;28;20031;-91
2023/03/22 08:46:42;;;;;;;7.90;2.50;;;;;;;13.39;77.97;100672.28;4940598;28;20034;-90
2023/03/22 08:49:09;;;;;;;8.65;2.65;;;;;;;13.58;77.76;100674.19;4941108;28;20050;-90
2023/03/22 08:51:34;;;;;;;8.25;2.20;;;;;;;13.80;75.94;100680.25;4938172;29;20032;-90
2023/03/22 08:54:03;;;;;;;7.75;2.53;;;;;;;13.79;75.13;100660.31;4939398;29;20051;-90
2023/03/22 08:56:28;;;;;;;7.63;2.50;;;;;;;13.81;75.10;100669.75;4939145;29;20046;-92
2023/03/22 08:58:54;;;;;;;8.77;2.40;;;;;;;13.78;75.70;100651.63;4939028;29;20065;-91
2023/03/22 09:01:19;;;;;;;6.68;2.33;;;;;;;13.93;73.92;100667.56;4940649;29;20608;-90
2023/03/22 09:03:45;;;;;;;7.18;2.58;;;;;;;13.92;74.38;100665.91;4938733;28;20028;-91
2023/03/22 09:06:12;;;;;;;7.43;2.30;;;;;;;13.94;75.93;100664.91;4939973;28;20510;-91
2023/03/22 09:08:38;;;;;;;7.03;2.17;;;;;;;13.94;74.70;100659.69;4939158;28;20035;-91
2023/03/22 09:11:03;;;;;;;6.03;2.60;;;;;;;13.92;72.47;100653.69;4941697;28;20118;-91
2023/03/22 09:13:33;;;;;;;10.60;2.28;;;;;;;13.89;73.87;100650.38;4940197;29;20062;-91
2023/03/22 09:15:59;;;;;;;6.88;2.00;;;;;;;14.02;73.37;100667.19;4940718;29;20073;-91
2023/03/22 09:18:25;;;;;;;10.70;2.40;;;;;;;14.08;75.27;100653.91;4939645;29;20519;-91
2023/03/22 09:20:51;;;;;;;9.07;2.33;;;;;;;14.19;73.53;100649.13;4942105;29;20035;-91
2023/03/22 09:23:16;;;;;;;10.00;2.30;;;;;;;14.24;72.91;100645.41;4942894;29;20456;-91
2023/03/22 09:25:46;;;;;;;7.03;2.00;;;;;;;14.26;71.97;100640.13;4956921;28;20483;-92
2023/03/22 09:28:12;;;;;;;8.82;2.38;;;;;;;14.31;71.46;100635.56;4956889;28;20036;-92
2023/03/22 09:30:41;;;;;;;9.50;2.30;;;;;;;14.35;71.75;100624.09;4938165;28;20046;-92
2023/03/22 09:33:06;;;;;;;6.53;2.20;;;;;;;14.36;70.35;100636.22;4939426;28;20119;-91
2023/03/22 09:35:32;;;;;;;7.82;2.90;;;;;;;14.30;69.19;100625.19;4939647;29;20220;-92
2023/03/22 09:37:58;;;;;;;9.05;2.35;;;;;;;14.11;70.30;100638.16;4938828;29;20656;-92
2023/03/22 09:40:28;;;;;;;8.90;2.17;;;;;;;14.01;72.11;100642.03;4938616;29;20789;-91
2023/03/22 09:42:56;;;;;;;10.27;1.90;;;;;;;13.97;70.56;100649.16;4936950;28;20035;-91
2023/03/22 09:45:34;;;;;;;6.57;2.17;;;;;;;13.78;72.34;100640.41;4939380;28;20027;-92
2023/03/22 09:48:00;;;;;;;8.80;2.10;;;;;;;13.62;70.86;100640.16;4954516;28;20034;-94
2023/03/22 09:50:30;;;;;;;8.05;2.13;;;;;;;13.74;71.65;100651.81;4939980;29;20027;-91
2023/03/22 09:52:56;;;;;;;9.32;2.22;;;;;;;13.52;72.70;100630.97;4941733;29;20023;-93
2023/03/22 09:55:40;;;;;;;8.93;2.33;;;;;;;13.61;72.96;100635.00;4942517;29;20063;-93
2023/03/22 09:58:23;;;;;;;9.23;2.35;;;;;;;13.44;72.25;100640.88;4943776;28;20033;-92
2023/03/22 10:01:02;;;;;;;5.93;1.98;;;;;;;13.37;73.18;100655.03;4955967;28;20027;-92
2023/03/22 10:03:30;;;;;;;11.73;2.30;;;;;;;13.32;74.44;100657.78;4939882;28;20075;-93
2023/03/22 10:06:12;;;;;;;7.53;2.03;;;;;;;13.37;73.88;100662.84;4957972;28;20051;-94
2023/03/22 10:09:09;;;;;;;8.20;2.00;;;;;;;13.14;72.79;100649.84;4956663;28;20166;-91
2023/03/22 10:12:03;;;;;;;5.35;2.00;;;;;;;12.99;74.63;100635.59;4955025;28;20070;-93
2023/03/22 10:14:32;;;;;;;8.23;2.22;;;;;;;13.04;73.55;100655.34;4957733;28;20039;-94
2023/03/22 10:17:02;;;;;;;7.55;2.00;;;;;;;12.95;74.57;100645.28;4941468;28;20035;-93
2023/03/22 10:19:37;;;;;;;5.80;1.90;;;;;;;13.05;75.08;100649.22;4958715;28;20023;-90
2023/03/22 10:22:05;;;;;;;6.80;1.90;;;;;;;13.01;74.33;100659.81;4942807;28;20039;-90
2023/03/22 10:24:34;;;;;;;7.15;1.83;;;;;;;12.83;75.01;100639.69;4957105;28;20059;-90
2023/03/22 10:27:00;;;;;;;7.47;1.90;;;;;;;12.69;75.31;100634.97;4942722;29;20123;-91
2023/03/22 10:29:42;;;;;;;10.32;2.22;;;;;;;12.69;77.27;100653.19;4941962;29;20043;-91
2023/03/22 10:32:28;;;;;;;8.60;2.03;;;;;;;12.69;76.86;100675.75;4941558;28;20286;-92
2023/03/22 10:34:54;;;;;;;7.60;2.00;;;;;;;12.44;78.13;100666.16;4940936;29;20043;-91
2023/03/22 10:37:25;;;;;;;11.18;2.30;;;;;;;12.26;80.78;100665.06;4956408;28;20019;-91
2023/03/22 10:39:54;;;;;;;6.72;2.03;;;;;;;12.23;82.02;100659.94;4941955;29;20050;-91
2023/03/22 10:42:24;;;;;;;8.32;2.10;;;;;;;12.21;82.34;100655.72;4943365;29;20027;-91
2023/03/22 10:44:51;;;;;;;8.52;2.35;;;;;;;12.24;84.00;100674.63;4943207;29;20114;-91
2023/03/22 10:47:22;;;;;;;4.47;2.20;;;;;;;12.16;85.29;100680.97;4941069;28;20042;-91
2023/03/22 10:49:53;;;;;;;7.43;2.47;;;;;;;12.00;86.27;100661.63;4943169;29;20043;-92
2023/03/22 10:52:32;;;;;;;6.45;2.05;;;;;;;12.15;86.24;100676.69;4945079;28;20090;-90
2023/03/22 10:55:00;;;;;;;7.88;2.28;;;;;;;11.91;88.02;100661.91;4938529;29;20070;-91
2023/03/22 10:57:26;;;;;;;7.53;2.55;;;;;;;11.98;89.79;100650.41;4956632;28;20027;-90
2023/03/22 10:59:55;;;;;;;7.82;2.40;;;;;;;12.07;89.37;100658.78;4940662;29;20039;-91
2023/03/22 11:02:27;;;;;;;6.05;2.05;;;;;;;12.24;91.13;100655.59;4942979;28;20035;-91
2023/03/22 11:04:55;;;;;;;7.80;2.42;;;;;;;12.38;90.31;100655.13;4942901;29;20398;-91
2023/03/22 11:07:32;;;;;;;8.35;2.53;;;;;;;12.39;90.71;100642.09;4941384;29;20023;-91
2023/03/22 11:10:11;;;;;;;4.50;2.10;;;;;;;12.38;89.83;100658.59;4942466;29;20415;-90
2023/03/22 11:12:49;;;;;;;8.82;2.45;;;;;;;12.23;91.57;100653.88;4941583;29;20059;-92
2023/03/22 11:15:38;;;;;;;8.95;2.50;;;;;;;12.26;92.43;100670.25;4956464;28;20530;-91
2023/03/22 11:18:06;;;;;;;6.93;2.67;;;;;;;12.15;94.00;100638.56;4942017;28;20035;-91
2023/03/22 11:20:34;;;;;;;9.38;2.70;;;;;;;12.26;94.16;100649.47;4942096;29;20055;-91
2023/03/22 11:23:01;;;;;;;9.10;2.53;;;;;;;12.48;93.43;100653.94;4940188;29;20027;-91
2023/03/22 11:25:30;;;;;;;6.18;2.45;;;;;;;12.42;93.07;100641.97;4941770;29;20157;-91
2023/03/22 11:28:04;;;;;;;8.38;2.67;;;;;;;12.57;92.23;100666.59;4941826;28;20037;-91
2023/03/22 11:30:33;;;;;;;8.95;2.90;;;;;;;12.41;93.41;100642.91;4941150;28;21295;-92
2023/03/22 11:33:18;;;;;;;7.30;2.70;;;;;;;12.50;91.94;100658.16;4955366;28;20471;-91
2023/03/22 11:35:59;;;;;;;9.77;2.80;;;;;;;12.53;93.36;100647.66;4942162;29;20058;-91
2023/03/22 11:38:36;;;;;;;7.35;2.90;;;;;;;12.63;92.12;100643.81;4941922;29;20971;-92
2023/03/22 11:41:19;;;;;;;6.70;2.40;;;;;;;12.90;90.12;100662.78;4940577;29;20034;-91